createdAt,value
2019-02-28T00:03:20.340Z,18.60
2019-02-28T00:07:23.845Z,17.70
2019-02-28T00:11:27.262Z,18.77
2019-02-28T00:15:30.863Z,18.67
2019-02-28T00:19:34.284Z,18.00
2019-02-28T00:23:37.683Z,19.00
2019-02-28T00:27:41.095Z,19.95
2019-02-28T00:31:49.488Z,20.27
2019-02-28T00:35:49.648Z,19.98
2019-02-28T00:39:53.376Z,20.77
2019-02-28T00:43:57.121Z,22.25
2019-02-28T00:48:01.307Z,20.12
2019-02-28T00:52:04.824Z,21.95
2019-02-28T00:56:08.235Z,21.10
2019-02-28T01:00:17.780Z,22.15
2019-02-28T01:04:21.294Z,22.45
2019-02-28T01:08:24.706Z,25.72
2019-02-28T01:12:28.113Z,27.42
2019-02-28T01:16:31.519Z,27.62
2019-02-28T01:20:34.929Z,29.75
2019-02-28T01:24:38.350Z,28.47
2019-02-28T01:28:41.746Z,29.32
2019-02-28T01:32:49.869Z,28.73
2019-02-28T01:36:50.419Z,28.32
2019-02-28T01:40:53.823Z,30.25
2019-02-28T01:44:57.224Z,29.82
2019-02-28T01:49:02.685Z,30.92
2019-02-28T01:53:06.095Z,30.37
2019-02-28T01:57:10.629Z,30.80
2019-02-28T02:01:14.241Z,30.70
2019-02-28T02:05:18.084Z,31.00
2019-02-28T02:09:21.775Z,33.40
2019-02-28T02:13:25.185Z,33.88
2019-02-28T02:17:28.594Z,34.27
2019-02-28T02:21:34.842Z,36.03
2019-02-28T02:25:38.185Z,34.80
2019-02-28T02:29:41.924Z,34.18
2019-02-28T02:33:51.112Z,36.83
2019-02-28T02:37:50.455Z,34.67
2019-02-28T02:41:53.862Z,35.15
2019-02-28T02:45:57.279Z,37.12
2019-02-28T02:50:00.620Z,36.83
2019-02-28T02:54:04.087Z,38.13
2019-02-28T02:58:07.497Z,39.25
2019-02-28T03:02:10.904Z,39.58
2019-02-28T03:06:14.553Z,38.98
2019-02-28T03:10:19.732Z,39.10
2019-02-28T03:14:23.387Z,38.76
2019-02-28T03:18:26.793Z,39.40
2019-02-28T03:22:30.468Z,40.60
2019-02-28T03:26:33.826Z,38.58
2019-02-28T03:30:37.232Z,40.38
2019-02-28T03:34:40.644Z,41.25
2019-02-28T03:38:48.203Z,41.53
2019-02-28T03:42:49.400Z,41.48
2019-02-28T03:46:52.912Z,44.18
2019-02-28T03:50:56.834Z,43.90
2019-02-28T03:55:03.192Z,43.30
2019-02-28T03:59:05.287Z,43.55
2019-02-28T04:03:08.697Z,45.67
2019-02-28T04:07:15.921Z,46.37
2019-02-28T04:11:17.254Z,45.17
2019-02-28T04:15:21.011Z,45.65
2019-02-28T04:19:24.481Z,47.80
2019-02-28T04:23:35.472Z,45.30
2019-02-28T04:27:33.042Z,50.43
2019-02-28T04:31:36.473Z,49.03
2019-02-28T04:35:39.856Z,48.48
2019-02-28T04:39:43.268Z,49.63
2019-02-28T04:43:46.677Z,52.53
2019-02-28T04:47:50.085Z,49.10
2019-02-28T04:51:53.499Z,49.93
2019-02-28T04:55:56.902Z,52.17
2019-02-28T05:00:00.405Z,50.80
2019-02-28T05:04:03.924Z,52.03
2019-02-28T05:08:07.334Z,51.30
2019-02-28T05:12:10.744Z,55.80
2019-02-28T05:16:14.151Z,55.92
2019-02-28T05:20:17.566Z,54.30
2019-02-28T05:24:20.969Z,53.36
2019-02-28T05:28:24.381Z,58.08
2019-02-28T05:32:27.833Z,57.60
2019-02-28T05:36:31.199Z,57.88
2019-02-28T05:40:40.432Z,58.60
2019-02-28T05:44:40.963Z,59.80
2019-02-28T05:48:44.700Z,60.43
2019-02-28T05:52:48.110Z,57.70
2019-02-28T05:56:51.628Z,59.40
2019-02-28T06:00:55.055Z,58.55
2019-02-28T06:04:58.438Z,61.05
2019-02-28T06:09:01.849Z,59.00
2019-02-28T06:13:05.255Z,62.43
2019-02-28T06:17:08.773Z,62.62
2019-02-28T06:21:12.191Z,60.17
2019-02-28T06:25:22.475Z,63.70
2019-02-28T06:29:20.838Z,64.12
2019-02-28T06:33:24.350Z,62.23
2019-02-28T06:37:27.758Z,63.10
2019-02-28T06:41:31.269Z,61.83
2019-02-28T06:45:37.627Z,59.90
2019-02-28T06:49:41.796Z,56.90
2019-02-28T06:53:44.975Z,55.43
2019-02-28T06:57:48.387Z,52.80
2019-02-28T07:01:56.609Z,53.74
2019-02-28T07:06:01.185Z,55.80
2019-02-28T07:10:03.017Z,55.50
2019-02-28T07:14:06.351Z,54.83
2019-02-28T07:18:09.836Z,58.00
2019-02-28T07:22:19.164Z,59.60
2019-02-28T07:26:18.898Z,59.38
2019-02-28T07:30:22.930Z,62.50
2019-02-28T07:34:26.439Z,60.12
2019-02-28T07:38:29.855Z,61.53
2019-02-28T07:42:33.699Z,62.45
2019-02-28T07:46:42.087Z,60.88
2019-02-28T07:50:46.493Z,60.85
2019-02-28T07:54:51.559Z,58.13
2019-02-28T07:58:53.959Z,62.13
2019-02-28T08:02:57.369Z,63.05
2019-02-28T08:07:00.713Z,61.45
2019-02-28T08:11:04.187Z,55.95
2019-02-28T08:15:11.038Z,57.35
2019-02-28T08:19:14.388Z,63.33
2019-02-28T08:23:17.793Z,59.05
2019-02-28T08:27:21.203Z,59.98
2019-02-28T08:31:24.608Z,58.65
2019-02-28T08:35:33.994Z,63.40
2019-02-28T08:39:33.166Z,60.35
2019-02-28T08:43:36.687Z,61.30
2019-02-28T08:47:40.090Z,57.67
2019-02-28T08:51:43.605Z,57.75
2019-02-28T08:55:46.959Z,59.35
2019-02-28T08:59:52.526Z,58.90
2019-02-28T09:03:55.453Z,57.40
2019-02-28T09:07:58.872Z,57.93
2019-02-28T09:12:02.282Z,53.70
2019-02-28T09:16:05.793Z,53.58
2019-02-28T09:20:11.288Z,50.88
2019-02-28T09:24:14.638Z,51.65
2019-02-28T09:28:17.980Z,51.47
2019-02-28T09:32:21.403Z,53.08
2019-02-28T09:36:24.742Z,52.38
2019-02-28T09:40:29.419Z,48.83
2019-02-28T09:44:33.445Z,50.65
2019-02-28T09:48:37.918Z,49.55
2019-02-28T09:52:42.597Z,53.68
2019-02-28T09:56:46.139Z,51.83
2019-02-28T10:00:50.412Z,51.13
2019-02-28T10:04:53.900Z,50.15
2019-02-28T10:08:57.279Z,48.15
2019-02-28T10:13:00.687Z,44.85
2019-02-28T10:17:04.097Z,48.73
2019-02-28T10:21:07.522Z,49.15
2019-02-28T10:25:12.040Z,49.35
2019-02-28T10:29:15.452Z,47.20
2019-02-28T10:33:18.858Z,50.60
2019-02-28T10:37:22.816Z,50.23
2019-02-28T10:41:27.969Z,50.25
2019-02-28T10:45:32.158Z,48.42
2019-02-28T10:49:35.566Z,47.55
2019-02-28T10:53:39.567Z,49.50
2019-02-28T10:57:43.613Z,46.20
2019-02-28T11:01:47.023Z,49.03
2019-02-28T11:05:54.313Z,48.55
2019-02-28T11:09:58.731Z,46.85
2019-02-28T11:14:03.921Z,42.73
2019-02-28T11:18:09.639Z,46.08
2019-02-28T11:22:11.878Z,44.97
2019-02-28T11:26:15.373Z,46.40
2019-02-28T11:30:21.745Z,45.08
2019-02-28T11:34:25.178Z,47.38
2019-02-28T11:38:28.558Z,45.28
2019-02-28T11:42:31.967Z,45.08
2019-02-28T11:46:36.611Z,44.75
2019-02-28T11:50:42.592Z,50.65
2019-02-28T11:54:45.878Z,46.55
2019-02-28T11:58:51.770Z,49.60
2019-02-28T12:02:59.708Z,45.38
2019-02-28T12:07:00.844Z,48.23
2019-02-28T12:11:04.846Z,48.17
2019-02-28T12:15:11.531Z,47.10
2019-02-28T12:19:15.909Z,49.93
2019-02-28T12:23:23.364Z,51.10
2019-02-28T12:27:27.582Z,49.98
2019-02-28T12:31:32.117Z,50.08
2019-02-28T12:35:39.952Z,50.75
2019-02-28T12:39:41.002Z,48.63
2019-02-28T12:43:44.540Z,50.25
2019-02-28T12:47:47.914Z,49.67
2019-02-28T12:51:51.526Z,48.00
2019-02-28T12:55:55.040Z,49.13
2019-02-28T12:59:58.407Z,48.28
2019-02-28T13:07:37.820Z,46.23
2019-02-28T13:11:41.333Z,47.75
2019-02-28T13:15:45.734Z,49.42
2019-02-28T13:19:53.150Z,48.10
2019-02-28T13:23:55.144Z,49.30
2019-02-28T13:27:58.661Z,48.00
2019-02-28T13:32:02.594Z,47.85
2019-02-28T13:36:06.293Z,47.88
2019-02-28T13:40:12.326Z,49.15
2019-02-28T13:44:15.684Z,46.65
2019-02-28T13:48:26.062Z,47.20
2019-02-28T13:52:24.341Z,48.55
2019-02-28T13:56:28.980Z,47.88
2019-02-28T14:00:34.188Z,49.65
2019-02-28T14:04:37.537Z,49.27
2019-02-28T14:08:41.990Z,48.38
2019-02-28T14:12:46.107Z,48.10
2019-02-28T14:16:49.519Z,44.55
2019-02-28T14:20:52.912Z,47.00
2019-02-28T14:24:56.318Z,44.53
2019-02-28T14:28:59.726Z,46.55
2019-02-28T14:33:03.142Z,45.85
2019-02-28T14:37:06.549Z,45.15
2019-02-28T14:41:09.957Z,44.03
2019-02-28T14:45:27.594Z,42.84
2019-02-28T14:49:31.016Z,43.02
2019-02-28T14:53:34.412Z,45.40
2019-02-28T14:57:37.923Z,45.28
2019-02-28T15:01:41.273Z,41.55
2019-02-28T15:05:44.757Z,42.93
2019-02-28T15:09:48.151Z,43.63
2019-02-28T15:13:53.081Z,42.30
2019-02-28T15:17:56.711Z,42.48
2019-02-28T15:22:00.143Z,43.55
2019-02-28T15:26:03.531Z,46.60
2019-02-28T15:30:12.353Z,45.30
2019-02-28T15:34:15.774Z,45.28
2019-02-28T15:38:19.184Z,45.75
2019-02-28T15:42:22.592Z,42.65
2019-02-28T15:46:26.103Z,43.73
2019-02-28T15:50:29.515Z,43.83
2019-02-28T15:54:33.030Z,44.75
2019-02-28T15:58:37.613Z,43.78
2019-02-28T16:02:42.120Z,44.45
2019-02-28T16:06:46.228Z,42.75
2019-02-28T16:10:53.450Z,46.13
2019-02-28T16:14:54.891Z,43.08
2019-02-28T16:18:58.295Z,44.45
2019-02-28T16:23:01.705Z,44.25
2019-02-28T16:27:05.241Z,46.58
2019-02-28T16:31:08.623Z,44.55
2019-02-28T16:35:14.617Z,43.42
2019-02-28T16:39:18.232Z,46.15
2019-02-28T16:43:21.820Z,48.10
2019-02-28T16:47:25.329Z,39.70
2019-02-28T16:51:29.424Z,43.10
2019-02-28T16:55:33.786Z,42.75
2019-02-28T16:59:37.196Z,42.55
2019-02-28T17:03:41.779Z,42.73
2019-02-28T17:07:45.652Z,42.00
2019-02-28T17:11:51.417Z,41.02
2019-02-28T17:16:01.447Z,39.18
2019-02-28T17:20:02.940Z,36.50
2019-02-28T17:24:08.622Z,35.25
2019-02-28T17:28:20.007Z,37.13
2019-02-28T17:32:23.515Z,35.80
2019-02-28T17:36:26.924Z,38.25
2019-02-28T17:40:30.329Z,35.48
2019-02-28T17:44:42.670Z,37.35
2019-02-28T17:49:01.009Z,35.58
2019-02-28T17:53:24.437Z,34.80
2019-02-28T17:57:31.072Z,34.53
2019-02-28T18:01:49.840Z,32.55
2019-02-28T18:05:59.186Z,31.87
2019-02-28T18:10:17.535Z,31.60
2019-02-28T18:14:34.239Z,28.23
2019-02-28T18:18:49.966Z,32.90
2019-02-28T18:23:02.476Z,31.12
2019-02-28T18:27:15.219Z,31.93
2019-02-28T18:31:22.289Z,30.45
2019-02-28T18:35:23.725Z,27.70
2019-02-28T18:39:27.186Z,26.40
2019-02-28T18:43:30.596Z,23.85
2019-02-28T18:47:35.994Z,22.27
2019-02-28T18:51:39.365Z,25.52
2019-02-28T18:55:42.807Z,25.72
2019-02-28T18:59:46.278Z,25.30
2019-02-28T19:03:49.812Z,29.35
2019-02-28T19:07:53.304Z,30.70
2019-02-28T19:11:56.710Z,27.32
2019-02-28T19:16:00.119Z,28.62
2019-02-28T19:20:04.259Z,51.02
2019-02-28T19:24:08.578Z,31.55
2019-02-28T19:28:12.093Z,29.07
2019-02-28T19:32:15.416Z,27.58
2019-02-28T19:36:18.835Z,27.32
2019-02-28T19:40:22.230Z,30.97
2019-02-28T19:44:25.617Z,29.50
2019-02-28T19:48:29.029Z,29.85
2019-02-28T19:52:32.442Z,32.00
2019-02-28T19:56:35.950Z,31.52
2019-02-28T20:00:39.465Z,30.62
2019-02-28T20:04:42.887Z,31.12
2019-02-28T20:08:46.188Z,33.80
2019-02-28T20:12:49.599Z,39.15
2019-02-28T20:16:52.985Z,34.03
2019-02-28T20:20:56.812Z,35.88
2019-02-28T20:25:00.281Z,37.85
2019-02-28T20:29:03.740Z,34.33
2019-02-28T20:33:07.252Z,35.24
2019-02-28T20:37:10.663Z,35.77
2019-02-28T20:41:14.030Z,35.23
2019-02-28T20:45:17.575Z,36.10
2019-02-28T20:49:21.085Z,34.03
2019-02-28T20:53:24.493Z,35.30
2019-02-28T20:57:28.005Z,34.98
2019-02-28T21:01:31.518Z,36.33
2019-02-28T21:05:35.951Z,38.05
2019-02-28T21:09:45.006Z,36.17
2019-02-28T21:13:44.463Z,36.40
2019-02-28T21:17:47.925Z,34.00
2019-02-28T21:21:51.330Z,36.95
2019-02-28T21:25:57.441Z,34.98
2019-02-28T21:30:01.013Z,31.73
2019-02-28T21:34:04.638Z,34.20
2019-02-28T21:38:08.154Z,31.60
2019-02-28T21:42:11.832Z,32.00
2019-02-28T21:46:15.365Z,32.50
2019-02-28T21:50:18.779Z,33.58
2019-02-28T21:54:22.183Z,35.28
2019-02-28T21:58:25.590Z,34.85
2019-02-28T22:02:28.999Z,34.48
2019-02-28T22:06:32.344Z,39.23
2019-02-28T22:10:35.719Z,39.35
2019-02-28T22:14:39.129Z,39.48
2019-02-28T22:18:42.538Z,42.80
2019-02-28T22:22:45.945Z,43.05
2019-02-28T22:26:49.351Z,44.13
2019-02-28T22:30:54.403Z,41.83
2019-02-28T22:34:59.452Z,43.28
2019-02-28T22:39:03.066Z,40.55
2019-02-28T22:43:06.475Z,42.93
2019-02-28T22:47:09.877Z,40.60
2019-02-28T22:51:13.215Z,42.08
2019-02-28T22:55:16.606Z,39.80
2019-02-28T22:59:20.109Z,41.90
2019-02-28T23:03:23.515Z,43.45
2019-02-28T23:07:26.925Z,42.53
2019-02-28T23:11:30.333Z,39.40
2019-02-28T23:15:33.764Z,41.73
2019-02-28T23:19:37.155Z,41.42
2019-02-28T23:23:40.565Z,42.88
2019-02-28T23:27:43.970Z,45.70
2019-02-28T23:31:50.653Z,43.38
2019-02-28T23:35:54.287Z,43.58
2019-02-28T23:39:57.676Z,42.88
2019-02-28T23:44:01.093Z,44.90
2019-02-28T23:48:04.492Z,45.73
2019-02-28T23:52:07.905Z,42.83
2019-02-28T23:56:11.316Z,46.02
